sensor_id;sensor_type;location;lat;lon;timestamp;temperature;humidity
8711;DHT22;4392;47.400;8.062;2022-07-03T00:01:27;23.60;86.50
8711;DHT22;4392;47.400;8.062;2022-07-03T00:03:52;23.60;87.30
8711;DHT22;4392;47.400;8.062;2022-07-03T00:06:18;23.70;87.20
8711;DHT22;4392;47.400;8.062;2022-07-03T00:08:44;23.80;87.10
8711;DHT22;4392;47.400;8.062;2022-07-03T00:11:10;23.70;87.10
8711;DHT22;4392;47.400;8.062;2022-07-03T00:13:37;23.80;87.10
8711;DHT22;4392;47.400;8.062;2022-07-03T00:16:03;23.70;87.60
8711;DHT22;4392;47.400;8.062;2022-07-03T00:18:28;23.70;87.10
8711;DHT22;4392;47.400;8.062;2022-07-03T00:21:04;23.60;87.40
8711;DHT22;4392;47.400;8.062;2022-07-03T00:23:44;23.50;87.60
8711;DHT22;4392;47.400;8.062;2022-07-03T00:26:13;23.50;88.00
8711;DHT22;4392;47.400;8.062;2022-07-03T00:28:40;23.30;88.90
8711;DHT22;4392;47.400;8.062;2022-07-03T00:31:07;23.20;88.60
8711;DHT22;4392;47.400;8.062;2022-07-03T00:33:36;23.30;88.00
8711;DHT22;4392;47.400;8.062;2022-07-03T00:36:02;23.40;88.20
8711;DHT22;4392;47.400;8.062;2022-07-03T00:38:28;23.50;88.00
8711;DHT22;4392;47.400;8.062;2022-07-03T00:40:54;23.60;87.60
8711;DHT22;4392;47.400;8.062;2022-07-03T00:43:20;23.70;88.00
8711;DHT22;4392;47.400;8.062;2022-07-03T00:45:48;23.70;87.30
8711;DHT22;4392;47.400;8.062;2022-07-03T00:48:16;23.70;87.20
8711;DHT22;4392;47.400;8.062;2022-07-03T00:50:50;23.70;87.10
8711;DHT22;4392;47.400;8.062;2022-07-03T00:53:22;23.70;87.20
8711;DHT22;4392;47.400;8.062;2022-07-03T00:55:55;23.70;87.30
8711;DHT22;4392;47.400;8.062;2022-07-03T00:58:22;23.70;87.00
8711;DHT22;4392;47.400;8.062;2022-07-03T01:00:50;23.80;86.60
8711;DHT22;4392;47.400;8.062;2022-07-03T01:03:18;23.80;86.80
8711;DHT22;4392;47.400;8.062;2022-07-03T01:05:54;23.70;87.80
8711;DHT22;4392;47.400;8.062;2022-07-03T01:08:49;23.70;88.80
8711;DHT22;4392;47.400;8.062;2022-07-03T01:11:37;23.70;88.00
8711;DHT22;4392;47.400;8.062;2022-07-03T01:14:27;23.60;88.10
8711;DHT22;4392;47.400;8.062;2022-07-03T01:16:58;23.60;88.20
8711;DHT22;4392;47.400;8.062;2022-07-03T01:22:26;23.60;88.40
8711;DHT22;4392;47.400;8.062;2022-07-03T01:30:12;23.70;89.10
8711;DHT22;4392;47.400;8.062;2022-07-03T01:32:42;23.60;90.00
8711;DHT22;4392;47.400;8.062;2022-07-03T01:35:08;23.50;90.00
8711;DHT22;4392;47.400;8.062;2022-07-03T01:37:39;23.50;90.30
8711;DHT22;4392;47.400;8.062;2022-07-03T01:40:07;23.50;90.30
8711;DHT22;4392;47.400;8.062;2022-07-03T01:42:34;23.30;90.30
8711;DHT22;4392;47.400;8.062;2022-07-03T01:45:03;23.20;91.40
8711;DHT22;4392;47.400;8.062;2022-07-03T01:47:31;23.20;91.20
8711;DHT22;4392;47.400;8.062;2022-07-03T01:50:01;23.10;91.60
8711;DHT22;4392;47.400;8.062;2022-07-03T01:52:31;23.10;91.40
8711;DHT22;4392;47.400;8.062;2022-07-03T01:55:00;23.20;91.40
8711;DHT22;4392;47.400;8.062;2022-07-03T01:57:43;23.20;91.30
8711;DHT22;4392;47.400;8.062;2022-07-03T02:00:12;23.30;91.30
8711;DHT22;4392;47.400;8.062;2022-07-03T02:03:00;23.30;91.00
8711;DHT22;4392;47.400;8.062;2022-07-03T02:05:28;23.30;91.30
8711;DHT22;4392;47.400;8.062;2022-07-03T02:10:28;23.30;91.30
8711;DHT22;4392;47.400;8.062;2022-07-03T02:13:06;23.20;91.50
8711;DHT22;4392;47.400;8.062;2022-07-03T02:15:34;23.00;92.00
8711;DHT22;4392;47.400;8.062;2022-07-03T02:20:56;22.80;92.60
8711;DHT22;4392;47.400;8.062;2022-07-03T02:23:31;22.90;93.00
8711;DHT22;4392;47.400;8.062;2022-07-03T02:26:02;22.90;93.00
8711;DHT22;4392;47.400;8.062;2022-07-03T02:29:04;23.00;92.80
8711;DHT22;4392;47.400;8.062;2022-07-03T02:31:54;23.10;92.40
8711;DHT22;4392;47.400;8.062;2022-07-03T02:34:23;23.20;92.10
8711;DHT22;4392;47.400;8.062;2022-07-03T02:36:53;23.10;91.90
8711;DHT22;4392;47.400;8.062;2022-07-03T02:42:29;23.10;92.10
8711;DHT22;4392;47.400;8.062;2022-07-03T02:44:59;23.20;92.10
8711;DHT22;4392;47.400;8.062;2022-07-03T02:47:48;23.20;92.00
8711;DHT22;4392;47.400;8.062;2022-07-03T02:50:21;23.20;91.90
8711;DHT22;4392;47.400;8.062;2022-07-03T02:53:04;23.20;91.60
8711;DHT22;4392;47.400;8.062;2022-07-03T02:55:45;23.20;91.40
8711;DHT22;4392;47.400;8.062;2022-07-03T03:04:18;23.20;91.20
8711;DHT22;4392;47.400;8.062;2022-07-03T03:09:39;23.20;91.30
8711;DHT22;4392;47.400;8.062;2022-07-03T03:12:06;23.20;91.20
8711;DHT22;4392;47.400;8.062;2022-07-03T03:14:45;23.10;91.20
8711;DHT22;4392;47.400;8.062;2022-07-03T03:17:19;23.10;91.30
8711;DHT22;4392;47.400;8.062;2022-07-03T03:19:52;23.10;91.30
8711;DHT22;4392;47.400;8.062;2022-07-03T03:25:22;23.20;91.20
8711;DHT22;4392;47.400;8.062;2022-07-03T03:27:48;23.20;91.20
8711;DHT22;4392;47.400;8.062;2022-07-03T03:30:14;23.20;91.10
8711;DHT22;4392;47.400;8.062;2022-07-03T03:32:40;23.20;91.00
8711;DHT22;4392;47.400;8.062;2022-07-03T03:35:07;23.20;90.90
8711;DHT22;4392;47.400;8.062;2022-07-03T03:37:33;23.20;91.00
8711;DHT22;4392;47.400;8.062;2022-07-03T03:40:02;23.20;91.00
8711;DHT22;4392;47.400;8.062;2022-07-03T03:42:28;23.20;90.70
8711;DHT22;4392;47.400;8.062;2022-07-03T03:44:54;23.30;90.50
8711;DHT22;4392;47.400;8.062;2022-07-03T03:47:19;23.20;90.40
8711;DHT22;4392;47.400;8.062;2022-07-03T03:49:45;23.10;90.60
8711;DHT22;4392;47.400;8.062;2022-07-03T03:52:11;23.00;91.10
8711;DHT22;4392;47.400;8.062;2022-07-03T03:54:37;22.80;91.30
8711;DHT22;4392;47.400;8.062;2022-07-03T03:57:35;22.80;91.60
8711;DHT22;4392;47.400;8.062;2022-07-03T04:00:05;22.70;91.80
8711;DHT22;4392;47.400;8.062;2022-07-03T04:02:31;22.70;91.70
8711;DHT22;4392;47.400;8.062;2022-07-03T04:04:57;22.70;91.70
8711;DHT22;4392;47.400;8.062;2022-07-03T04:07:23;22.80;91.80
8711;DHT22;4392;47.400;8.062;2022-07-03T04:09:51;22.80;91.30
8711;DHT22;4392;47.400;8.062;2022-07-03T04:12:17;22.80;91.40
8711;DHT22;4392;47.400;8.062;2022-07-03T04:14:42;22.80;91.40
8711;DHT22;4392;47.400;8.062;2022-07-03T04:17:08;22.80;91.40
8711;DHT22;4392;47.400;8.062;2022-07-03T04:19:34;22.70;91.50
8711;DHT22;4392;47.400;8.062;2022-07-03T04:22:00;22.70;91.50
8711;DHT22;4392;47.400;8.062;2022-07-03T04:24:28;22.70;91.50
8711;DHT22;4392;47.400;8.062;2022-07-03T04:26:54;22.60;91.50
8711;DHT22;4392;47.400;8.062;2022-07-03T04:29:19;22.60;92.00
8711;DHT22;4392;47.400;8.062;2022-07-03T04:31:45;22.60;92.00
8711;DHT22;4392;47.400;8.062;2022-07-03T04:34:11;22.70;91.90
8711;DHT22;4392;47.400;8.062;2022-07-03T04:36:37;22.70;91.70
8711;DHT22;4392;47.400;8.062;2022-07-03T04:39:03;22.70;92.00
8711;DHT22;4392;47.400;8.062;2022-07-03T04:41:29;22.70;92.20
8711;DHT22;4392;47.400;8.062;2022-07-03T04:43:54;22.70;92.40
8711;DHT22;4392;47.400;8.062;2022-07-03T04:46:20;22.70;92.90
8711;DHT22;4392;47.400;8.062;2022-07-03T04:48:48;22.70;93.30
8711;DHT22;4392;47.400;8.062;2022-07-03T04:51:14;22.70;93.20
8711;DHT22;4392;47.400;8.062;2022-07-03T04:53:40;22.70;93.20
8711;DHT22;4392;47.400;8.062;2022-07-03T04:56:06;22.50;93.30
8711;DHT22;4392;47.400;8.062;2022-07-03T04:58:31;22.60;93.80
8711;DHT22;4392;47.400;8.062;2022-07-03T05:00:58;22.60;93.50
8711;DHT22;4392;47.400;8.062;2022-07-03T05:03:24;22.40;93.60
8711;DHT22;4392;47.400;8.062;2022-07-03T05:05:49;22.30;94.40
8711;DHT22;4392;47.400;8.062;2022-07-03T05:08:17;22.30;94.50
8711;DHT22;4392;47.400;8.062;2022-07-03T05:10:45;22.30;94.40
8711;DHT22;4392;47.400;8.062;2022-07-03T05:13:11;22.20;94.60
8711;DHT22;4392;47.400;8.062;2022-07-03T05:15:37;22.20;94.60
8711;DHT22;4392;47.400;8.062;2022-07-03T05:18:03;22.20;94.70
8711;DHT22;4392;47.400;8.062;2022-07-03T05:20:28;22.20;94.20
8711;DHT22;4392;47.400;8.062;2022-07-03T05:23:00;22.20;94.70
8711;DHT22;4392;47.400;8.062;2022-07-03T05:25:28;22.10;95.00
8711;DHT22;4392;47.400;8.062;2022-07-03T05:27:54;22.10;95.30
8711;DHT22;4392;47.400;8.062;2022-07-03T05:30:24;22.20;95.50
8711;DHT22;4392;47.400;8.062;2022-07-03T05:32:50;22.20;96.30
8711;DHT22;4392;47.400;8.062;2022-07-03T05:35:17;22.10;96.10
8711;DHT22;4392;47.400;8.062;2022-07-03T05:37:43;22.20;95.60
8711;DHT22;4392;47.400;8.062;2022-07-03T05:40:08;22.30;95.30
8711;DHT22;4392;47.400;8.062;2022-07-03T05:42:34;22.30;95.40
8711;DHT22;4392;47.400;8.062;2022-07-03T05:45:01;22.30;95.10
8711;DHT22;4392;47.400;8.062;2022-07-03T05:47:30;22.40;95.20
8711;DHT22;4392;47.400;8.062;2022-07-03T05:49:56;22.40;95.50
8711;DHT22;4392;47.400;8.062;2022-07-03T05:52:21;22.40;95.20
8711;DHT22;4392;47.400;8.062;2022-07-03T05:54:50;22.50;95.70
8711;DHT22;4392;47.400;8.062;2022-07-03T05:57:16;22.50;95.00
8711;DHT22;4392;47.400;8.062;2022-07-03T05:59:42;22.50;95.00
8711;DHT22;4392;47.400;8.062;2022-07-03T06:02:08;22.60;94.90
8711;DHT22;4392;47.400;8.062;2022-07-03T06:04:33;22.60;95.30
8711;DHT22;4392;47.400;8.062;2022-07-03T06:06:59;22.60;94.90
8711;DHT22;4392;47.400;8.062;2022-07-03T06:09:25;22.70;94.60
8711;DHT22;4392;47.400;8.062;2022-07-03T06:11:51;22.70;94.50
8711;DHT22;4392;47.400;8.062;2022-07-03T06:14:16;22.60;95.30
8711;DHT22;4392;47.400;8.062;2022-07-03T06:16:42;22.70;95.40
8711;DHT22;4392;47.400;8.062;2022-07-03T06:19:08;22.70;94.90
8711;DHT22;4392;47.400;8.062;2022-07-03T06:21:34;22.70;95.20
8711;DHT22;4392;47.400;8.062;2022-07-03T06:23:59;22.60;95.50
8711;DHT22;4392;47.400;8.062;2022-07-03T06:26:26;22.40;96.40
8711;DHT22;4392;47.400;8.062;2022-07-03T06:28:52;22.40;96.60
8711;DHT22;4392;47.400;8.062;2022-07-03T06:31:20;22.50;96.10
8711;DHT22;4392;47.400;8.062;2022-07-03T06:33:46;22.60;95.60
8711;DHT22;4392;47.400;8.062;2022-07-03T06:36:12;22.70;95.10
8711;DHT22;4392;47.400;8.062;2022-07-03T06:38:37;22.80;94.90
8711;DHT22;4392;47.400;8.062;2022-07-03T06:41:03;22.80;95.10
8711;DHT22;4392;47.400;8.062;2022-07-03T06:43:31;22.70;94.80
8711;DHT22;4392;47.400;8.062;2022-07-03T06:45:57;22.80;95.40
8711;DHT22;4392;47.400;8.062;2022-07-03T06:48:22;22.80;94.90
8711;DHT22;4392;47.400;8.062;2022-07-03T06:50:49;22.80;94.60
8711;DHT22;4392;47.400;8.062;2022-07-03T06:53:15;22.90;94.70
8711;DHT22;4392;47.400;8.062;2022-07-03T06:55:40;22.90;94.80
8711;DHT22;4392;47.400;8.062;2022-07-03T06:58:06;22.90;94.70
8711;DHT22;4392;47.400;8.062;2022-07-03T07:00:32;23.00;94.80
8711;DHT22;4392;47.400;8.062;2022-07-03T07:02:58;23.00;94.70
8711;DHT22;4392;47.400;8.062;2022-07-03T07:05:23;23.00;94.60
8711;DHT22;4392;47.400;8.062;2022-07-03T07:07:49;23.00;94.60
8711;DHT22;4392;47.400;8.062;2022-07-03T07:10:15;23.10;94.60
8711;DHT22;4392;47.400;8.062;2022-07-03T07:12:41;23.10;94.50
8711;DHT22;4392;47.400;8.062;2022-07-03T07:15:07;23.10;94.50
8711;DHT22;4392;47.400;8.062;2022-07-03T07:17:33;23.10;94.50
8711;DHT22;4392;47.400;8.062;2022-07-03T07:19:59;23.20;94.60
8711;DHT22;4392;47.400;8.062;2022-07-03T07:22:24;23.10;94.40
8711;DHT22;4392;47.400;8.062;2022-07-03T07:24:53;23.20;94.50
8711;DHT22;4392;47.400;8.062;2022-07-03T07:27:21;23.30;94.30
8711;DHT22;4392;47.400;8.062;2022-07-03T07:29:46;23.30;94.00
8711;DHT22;4392;47.400;8.062;2022-07-03T07:32:12;23.30;93.90
8711;DHT22;4392;47.400;8.062;2022-07-03T07:34:38;23.20;93.20
8711;DHT22;4392;47.400;8.062;2022-07-03T07:37:04;23.20;93.00
8711;DHT22;4392;47.400;8.062;2022-07-03T07:39:32;23.20;93.20
8711;DHT22;4392;47.400;8.062;2022-07-03T07:41:58;23.10;93.00
8711;DHT22;4392;47.400;8.062;2022-07-03T07:44:23;23.10;92.60
8711;DHT22;4392;47.400;8.062;2022-07-03T07:46:49;23.20;91.40
8711;DHT22;4392;47.400;8.062;2022-07-03T07:49:15;23.10;90.50
8711;DHT22;4392;47.400;8.062;2022-07-03T07:51:41;23.10;90.30
8711;DHT22;4392;47.400;8.062;2022-07-03T07:54:06;23.20;90.20
8711;DHT22;4392;47.400;8.062;2022-07-03T07:56:32;23.20;90.40
8711;DHT22;4392;47.400;8.062;2022-07-03T07:58:58;23.20;90.20
8711;DHT22;4392;47.400;8.062;2022-07-03T08:01:23;23.30;89.40
8711;DHT22;4392;47.400;8.062;2022-07-03T08:04:07;23.30;90.00
8711;DHT22;4392;47.400;8.062;2022-07-03T08:06:52;23.30;90.30
8711;DHT22;4392;47.400;8.062;2022-07-03T08:09:20;23.20;89.70
8711;DHT22;4392;47.400;8.062;2022-07-03T08:11:45;23.20;90.00
8711;DHT22;4392;47.400;8.062;2022-07-03T08:14:12;23.30;90.40
8711;DHT22;4392;47.400;8.062;2022-07-03T08:16:37;23.30;89.10
8711;DHT22;4392;47.400;8.062;2022-07-03T08:19:07;23.30;87.90
8711;DHT22;4392;47.400;8.062;2022-07-03T08:21:33;23.30;85.80
8711;DHT22;4392;47.400;8.062;2022-07-03T08:23:59;23.30;85.80
8711;DHT22;4392;47.400;8.062;2022-07-03T08:26:25;23.30;84.50
8711;DHT22;4392;47.400;8.062;2022-07-03T08:28:50;23.40;82.20
8711;DHT22;4392;47.400;8.062;2022-07-03T08:31:16;23.40;81.10
8711;DHT22;4392;47.400;8.062;2022-07-03T08:33:42;23.40;80.90
8711;DHT22;4392;47.400;8.062;2022-07-03T08:36:07;23.50;80.70
8711;DHT22;4392;47.400;8.062;2022-07-03T08:38:34;23.50;78.80
8711;DHT22;4392;47.400;8.062;2022-07-03T08:41:03;23.50;77.70
8711;DHT22;4392;47.400;8.062;2022-07-03T08:43:29;23.60;75.50
8711;DHT22;4392;47.400;8.062;2022-07-03T08:45:57;23.60;74.70
8711;DHT22;4392;47.400;8.062;2022-07-03T08:48:24;23.50;73.10
8711;DHT22;4392;47.400;8.062;2022-07-03T08:50:51;23.40;74.20
8711;DHT22;4392;47.400;8.062;2022-07-03T08:53:18;23.50;74.10
8711;DHT22;4392;47.400;8.062;2022-07-03T08:55:53;23.50;74.10
8711;DHT22;4392;47.400;8.062;2022-07-03T08:58:22;23.60;74.30
8711;DHT22;4392;47.400;8.062;2022-07-03T09:00:48;23.50;74.60
8711;DHT22;4392;47.400;8.062;2022-07-03T09:03:14;23.50;71.70
8711;DHT22;4392;47.400;8.062;2022-07-03T09:05:42;23.50;72.00
8711;DHT22;4392;47.400;8.062;2022-07-03T09:08:09;23.50;71.00
8711;DHT22;4392;47.400;8.062;2022-07-03T09:10:36;23.50;69.60
8711;DHT22;4392;47.400;8.062;2022-07-03T09:13:02;23.50;68.50
8711;DHT22;4392;47.400;8.062;2022-07-03T09:15:28;23.50;68.70
8711;DHT22;4392;47.400;8.062;2022-07-03T09:18:02;23.50;68.30
8711;DHT22;4392;47.400;8.062;2022-07-03T09:20:35;23.60;68.10
8711;DHT22;4392;47.400;8.062;2022-07-03T09:23:11;23.60;69.10
8711;DHT22;4392;47.400;8.062;2022-07-03T09:26:00;23.60;69.20
8711;DHT22;4392;47.400;8.062;2022-07-03T09:28:53;23.60;68.80
8711;DHT22;4392;47.400;8.062;2022-07-03T09:31:25;23.70;68.90
8711;DHT22;4392;47.400;8.062;2022-07-03T09:34:02;23.60;69.30
8711;DHT22;4392;47.400;8.062;2022-07-03T09:36:41;23.70;70.00
8711;DHT22;4392;47.400;8.062;2022-07-03T09:39:21;23.70;71.60
8711;DHT22;4392;47.400;8.062;2022-07-03T09:44:38;23.80;72.90
8711;DHT22;4392;47.400;8.062;2022-07-03T09:47:13;23.80;72.30
8711;DHT22;4392;47.400;8.062;2022-07-03T09:49:56;23.90;70.70
8711;DHT22;4392;47.400;8.062;2022-07-03T10:00:25;24.00;67.30
8711;DHT22;4392;47.400;8.062;2022-07-03T10:05:36;24.00;66.80
8711;DHT22;4392;47.400;8.062;2022-07-03T10:08:03;24.00;67.10
8711;DHT22;4392;47.400;8.062;2022-07-03T10:10:31;24.00;66.60
8711;DHT22;4392;47.400;8.062;2022-07-03T10:12:58;24.10;66.60
8711;DHT22;4392;47.400;8.062;2022-07-03T10:15:25;24.10;66.50
8711;DHT22;4392;47.400;8.062;2022-07-03T10:17:53;24.20;66.40
8711;DHT22;4392;47.400;8.062;2022-07-03T10:23:02;24.20;66.40
8711;DHT22;4392;47.400;8.062;2022-07-03T10:25:29;24.30;66.60
8711;DHT22;4392;47.400;8.062;2022-07-03T10:27:55;24.30;68.00
8711;DHT22;4392;47.400;8.062;2022-07-03T10:30:23;24.30;68.70
8711;DHT22;4392;47.400;8.062;2022-07-03T10:32:51;24.40;70.70
8711;DHT22;4392;47.400;8.062;2022-07-03T10:35:21;24.40;69.50
8711;DHT22;4392;47.400;8.062;2022-07-03T10:40:53;24.50;69.00
8711;DHT22;4392;47.400;8.062;2022-07-03T10:43:58;24.50;65.60
8711;DHT22;4392;47.400;8.062;2022-07-03T10:46:42;24.70;66.00
8711;DHT22;4392;47.400;8.062;2022-07-03T10:49:09;24.60;64.40
8711;DHT22;4392;47.400;8.062;2022-07-03T11:02:22;24.80;66.30
8711;DHT22;4392;47.400;8.062;2022-07-03T11:07:35;24.80;64.30
8711;DHT22;4392;47.400;8.062;2022-07-03T11:12:58;24.90;63.00
8711;DHT22;4392;47.400;8.062;2022-07-03T11:18:07;25.00;68.10
8711;DHT22;4392;47.400;8.062;2022-07-03T11:20:34;25.10;65.40
8711;DHT22;4392;47.400;8.062;2022-07-03T11:26:01;25.20;67.70
8711;DHT22;4392;47.400;8.062;2022-07-03T11:33:46;25.40;62.00
8711;DHT22;4392;47.400;8.062;2022-07-03T11:38:48;25.20;64.60
8711;DHT22;4392;47.400;8.062;2022-07-03T11:41:17;25.20;65.70
8711;DHT22;4392;47.400;8.062;2022-07-03T11:43:53;25.30;65.70
8711;DHT22;4392;47.400;8.062;2022-07-03T11:46:21;25.30;63.30
8711;DHT22;4392;47.400;8.062;2022-07-03T11:48:47;25.40;61.90
8711;DHT22;4392;47.400;8.062;2022-07-03T11:51:14;25.50;61.60
8711;DHT22;4392;47.400;8.062;2022-07-03T11:53:40;25.50;62.10
8711;DHT22;4392;47.400;8.062;2022-07-03T11:56:10;25.50;62.20
8711;DHT22;4392;47.400;8.062;2022-07-03T11:58:46;25.60;61.70
8711;DHT22;4392;47.400;8.062;2022-07-03T12:03:48;25.50;61.90
8711;DHT22;4392;47.400;8.062;2022-07-03T12:06:13;25.50;61.70
8711;DHT22;4392;47.400;8.062;2022-07-03T12:08:39;25.60;61.10
8711;DHT22;4392;47.400;8.062;2022-07-03T12:11:09;25.60;60.60
8711;DHT22;4392;47.400;8.062;2022-07-03T12:13:37;25.70;59.40
8711;DHT22;4392;47.400;8.062;2022-07-03T12:16:07;25.50;60.50
8711;DHT22;4392;47.400;8.062;2022-07-03T12:18:52;25.50;60.40
8711;DHT22;4392;47.400;8.062;2022-07-03T12:21:22;25.50;60.40
8711;DHT22;4392;47.400;8.062;2022-07-03T12:23:51;25.50;60.40
8711;DHT22;4392;47.400;8.062;2022-07-03T12:26:33;25.50;60.50
8711;DHT22;4392;47.400;8.062;2022-07-03T12:29:06;25.50;60.10
8711;DHT22;4392;47.400;8.062;2022-07-03T12:31:32;25.60;63.10
8711;DHT22;4392;47.400;8.062;2022-07-03T12:34:00;25.70;62.20
8711;DHT22;4392;47.400;8.062;2022-07-03T12:36:27;25.70;62.00
8711;DHT22;4392;47.400;8.062;2022-07-03T12:38:57;25.80;59.80
8711;DHT22;4392;47.400;8.062;2022-07-03T12:41:24;26.10;60.00
8711;DHT22;4392;47.400;8.062;2022-07-03T12:43:51;26.10;59.60
8711;DHT22;4392;47.400;8.062;2022-07-03T12:48:55;26.20;59.20
8711;DHT22;4392;47.400;8.062;2022-07-03T12:51:50;26.20;59.00
8711;DHT22;4392;47.400;8.062;2022-07-03T12:54:30;26.50;57.30
8711;DHT22;4392;47.400;8.062;2022-07-03T12:57:04;26.70;58.10
8711;DHT22;4392;47.400;8.062;2022-07-03T13:02:40;26.70;57.80
8711;DHT22;4392;47.400;8.062;2022-07-03T13:05:23;26.70;57.40
8711;DHT22;4392;47.400;8.062;2022-07-03T13:07:51;26.90;57.30
8711;DHT22;4392;47.400;8.062;2022-07-03T13:10:20;26.80;58.30
8711;DHT22;4392;47.400;8.062;2022-07-03T13:15:16;26.90;57.50
8711;DHT22;4392;47.400;8.062;2022-07-03T13:22:50;27.40;57.20
8711;DHT22;4392;47.400;8.062;2022-07-03T13:25:16;27.50;58.90
8711;DHT22;4392;47.400;8.062;2022-07-03T13:27:42;27.80;55.90
8711;DHT22;4392;47.400;8.062;2022-07-03T13:30:15;27.70;57.10
8711;DHT22;4392;47.400;8.062;2022-07-03T13:32:42;27.70;57.00
8711;DHT22;4392;47.400;8.062;2022-07-03T13:35:08;27.60;57.00
8711;DHT22;4392;47.400;8.062;2022-07-03T13:37:35;27.70;57.10
8711;DHT22;4392;47.400;8.062;2022-07-03T13:40:01;27.80;56.80
8711;DHT22;4392;47.400;8.062;2022-07-03T13:42:27;27.90;57.10
8711;DHT22;4392;47.400;8.062;2022-07-03T13:44:53;28.00;58.40
8711;DHT22;4392;47.400;8.062;2022-07-03T13:47:19;28.10;58.20
8711;DHT22;4392;47.400;8.062;2022-07-03T13:49:44;28.30;58.10
8711;DHT22;4392;47.400;8.062;2022-07-03T13:52:10;28.50;57.80
8711;DHT22;4392;47.400;8.062;2022-07-03T13:54:36;28.40;58.70
8711;DHT22;4392;47.400;8.062;2022-07-03T13:57:07;28.60;61.60
8711;DHT22;4392;47.400;8.062;2022-07-03T13:59:33;28.90;57.60
8711;DHT22;4392;47.400;8.062;2022-07-03T14:01:59;29.00;57.60
8711;DHT22;4392;47.400;8.062;2022-07-03T14:04:26;28.90;58.10
8711;DHT22;4392;47.400;8.062;2022-07-03T14:06:57;28.90;58.90
8711;DHT22;4392;47.400;8.062;2022-07-03T14:09:24;28.90;59.20
8711;DHT22;4392;47.400;8.062;2022-07-03T14:11:51;29.20;59.60
8711;DHT22;4392;47.400;8.062;2022-07-03T14:14:19;29.40;59.10
8711;DHT22;4392;47.400;8.062;2022-07-03T14:16:45;29.30;58.40
8711;DHT22;4392;47.400;8.062;2022-07-03T14:19:10;28.90;59.20
8711;DHT22;4392;47.400;8.062;2022-07-03T14:21:36;28.70;59.30
8711;DHT22;4392;47.400;8.062;2022-07-03T14:24:02;28.60;59.20
8711;DHT22;4392;47.400;8.062;2022-07-03T14:26:28;28.40;59.40
8711;DHT22;4392;47.400;8.062;2022-07-03T14:29:12;28.30;59.60
8711;DHT22;4392;47.400;8.062;2022-07-03T14:31:56;28.30;61.00
8711;DHT22;4392;47.400;8.062;2022-07-03T14:34:41;28.30;60.70
8711;DHT22;4392;47.400;8.062;2022-07-03T14:37:08;28.40;60.60
8711;DHT22;4392;47.400;8.062;2022-07-03T14:39:35;28.60;60.90
8711;DHT22;4392;47.400;8.062;2022-07-03T14:42:01;28.90;59.10
8711;DHT22;4392;47.400;8.062;2022-07-03T14:44:28;29.20;58.40
8711;DHT22;4392;47.400;8.062;2022-07-03T14:46:55;29.10;58.90
8711;DHT22;4392;47.400;8.062;2022-07-03T14:49:21;28.90;59.40
8711;DHT22;4392;47.400;8.062;2022-07-03T14:51:49;28.70;60.50
8711;DHT22;4392;47.400;8.062;2022-07-03T14:54:18;28.60;60.70
8711;DHT22;4392;47.400;8.062;2022-07-03T14:56:55;28.50;61.50
8711;DHT22;4392;47.400;8.062;2022-07-03T14:59:38;28.40;62.20
8711;DHT22;4392;47.400;8.062;2022-07-03T15:02:05;28.30;61.80
8711;DHT22;4392;47.400;8.062;2022-07-03T15:07:21;28.40;62.40
8711;DHT22;4392;47.400;8.062;2022-07-03T15:10:08;28.60;61.80
8711;DHT22;4392;47.400;8.062;2022-07-03T15:12:49;28.90;60.80
8711;DHT22;4392;47.400;8.062;2022-07-03T15:15:16;29.10;60.80
8711;DHT22;4392;47.400;8.062;2022-07-03T15:17:43;29.10;59.90
8711;DHT22;4392;47.400;8.062;2022-07-03T15:20:12;28.80;59.00
8711;DHT22;4392;47.400;8.062;2022-07-03T15:22:39;28.70;59.10
8711;DHT22;4392;47.400;8.062;2022-07-03T15:25:07;28.90;59.20
8711;DHT22;4392;47.400;8.062;2022-07-03T15:27:33;29.10;59.50
8711;DHT22;4392;47.400;8.062;2022-07-03T15:30:00;29.10;58.70
8711;DHT22;4392;47.400;8.062;2022-07-03T15:32:27;29.10;59.20
8711;DHT22;4392;47.400;8.062;2022-07-03T15:34:53;29.40;59.70
8711;DHT22;4392;47.400;8.062;2022-07-03T15:39:54;29.50;57.90
8711;DHT22;4392;47.400;8.062;2022-07-03T15:45:13;29.70;58.00
8711;DHT22;4392;47.400;8.062;2022-07-03T15:51:23;30.00;57.40
8711;DHT22;4392;47.400;8.062;2022-07-03T15:53:59;30.00;57.30
8711;DHT22;4392;47.400;8.062;2022-07-03T15:56:33;30.20;55.90
8711;DHT22;4392;47.400;8.062;2022-07-03T15:59:04;30.20;56.80
8711;DHT22;4392;47.400;8.062;2022-07-03T16:01:36;30.00;57.50
8711;DHT22;4392;47.400;8.062;2022-07-03T16:04:24;30.10;56.40
8711;DHT22;4392;47.400;8.062;2022-07-03T16:06:52;30.40;56.50
8711;DHT22;4392;47.400;8.062;2022-07-03T16:09:19;30.40;57.00
8711;DHT22;4392;47.400;8.062;2022-07-03T16:11:45;30.40;56.80
8711;DHT22;4392;47.400;8.062;2022-07-03T16:14:11;30.50;57.30
8711;DHT22;4392;47.400;8.062;2022-07-03T16:16:38;30.70;56.20
8711;DHT22;4392;47.400;8.062;2022-07-03T16:19:06;30.70;55.90
8711;DHT22;4392;47.400;8.062;2022-07-03T16:21:36;30.50;55.50
8711;DHT22;4392;47.400;8.062;2022-07-03T16:24:05;30.80;55.40
8711;DHT22;4392;47.400;8.062;2022-07-03T16:26:34;31.20;55.10
8711;DHT22;4392;47.400;8.062;2022-07-03T16:29:00;31.20;55.00
8711;DHT22;4392;47.400;8.062;2022-07-03T16:31:40;31.30;54.60
8711;DHT22;4392;47.400;8.062;2022-07-03T16:36:46;31.20;55.10
8711;DHT22;4392;47.400;8.062;2022-07-03T16:39:16;31.20;54.90
8711;DHT22;4392;47.400;8.062;2022-07-03T16:41:47;31.20;54.80
8711;DHT22;4392;47.400;8.062;2022-07-03T16:44:20;31.30;54.40
8711;DHT22;4392;47.400;8.062;2022-07-03T16:46:50;31.30;54.40
8711;DHT22;4392;47.400;8.062;2022-07-03T16:49:22;31.30;55.20
8711;DHT22;4392;47.400;8.062;2022-07-03T16:51:52;31.40;54.50
8711;DHT22;4392;47.400;8.062;2022-07-03T16:54:19;31.40;54.60
8711;DHT22;4392;47.400;8.062;2022-07-03T16:56:46;31.30;54.50
8711;DHT22;4392;47.400;8.062;2022-07-03T16:59:14;31.30;54.60
8711;DHT22;4392;47.400;8.062;2022-07-03T17:01:41;31.20;54.60
8711;DHT22;4392;47.400;8.062;2022-07-03T17:04:08;31.20;55.50
8711;DHT22;4392;47.400;8.062;2022-07-03T17:06:35;31.30;55.80
8711;DHT22;4392;47.400;8.062;2022-07-03T17:09:03;31.20;55.60
8711;DHT22;4392;47.400;8.062;2022-07-03T17:11:29;31.30;54.70
8711;DHT22;4392;47.400;8.062;2022-07-03T17:13:55;31.30;54.80
8711;DHT22;4392;47.400;8.062;2022-07-03T17:16:21;31.40;54.60
8711;DHT22;4392;47.400;8.062;2022-07-03T17:18:50;31.50;54.80
8711;DHT22;4392;47.400;8.062;2022-07-03T17:21:28;31.60;54.90
8711;DHT22;4392;47.400;8.062;2022-07-03T17:23:55;31.70;54.20
8711;DHT22;4392;47.400;8.062;2022-07-03T17:26:24;31.70;55.00
8711;DHT22;4392;47.400;8.062;2022-07-03T17:29:04;31.80;54.80
8711;DHT22;4392;47.400;8.062;2022-07-03T17:31:35;32.00;55.50
8711;DHT22;4392;47.400;8.062;2022-07-03T17:34:03;32.00;55.30
8711;DHT22;4392;47.400;8.062;2022-07-03T17:36:32;32.10;54.50
8711;DHT22;4392;47.400;8.062;2022-07-03T17:38:58;32.10;53.90
8711;DHT22;4392;47.400;8.062;2022-07-03T17:41:26;31.90;54.70
8711;DHT22;4392;47.400;8.062;2022-07-03T17:43:53;32.00;55.50
8711;DHT22;4392;47.400;8.062;2022-07-03T17:46:19;32.10;55.50
8711;DHT22;4392;47.400;8.062;2022-07-03T17:48:45;32.00;54.80
8711;DHT22;4392;47.400;8.062;2022-07-03T17:51:14;32.00;55.60
8711;DHT22;4392;47.400;8.062;2022-07-03T17:53:42;31.90;54.50
8711;DHT22;4392;47.400;8.062;2022-07-03T17:56:13;31.90;55.00
8711;DHT22;4392;47.400;8.062;2022-07-03T17:58:41;31.90;54.70
8711;DHT22;4392;47.400;8.062;2022-07-03T18:01:08;32.00;54.70
8711;DHT22;4392;47.400;8.062;2022-07-03T18:03:34;31.90;53.50